createdAt,value
2022-10-13T00:01:45.556Z,10.52
2022-10-13T00:04:14.329Z,10.49
2022-10-13T00:06:41.735Z,10.39
2022-10-13T00:09:09.245Z,10.24
2022-10-13T00:11:36.640Z,10.29
2022-10-13T00:14:05.433Z,10.50
2022-10-13T00:16:36.262Z,10.43
2022-10-13T00:19:03.751Z,10.37
2022-10-13T00:21:32.609Z,10.32
2022-10-13T00:24:00.102Z,10.53
2022-10-13T00:26:27.959Z,10.54
2022-10-13T00:28:55.725Z,10.54
2022-10-13T00:31:25.042Z,10.63
2022-10-13T00:33:52.800Z,10.77
2022-10-13T00:36:22.073Z,10.71
2022-10-13T00:38:50.932Z,10.55
2022-10-13T00:41:18.655Z,10.72
2022-10-13T00:43:51.902Z,10.59
2022-10-13T00:46:20.025Z,10.83
2022-10-13T00:48:48.079Z,10.96
2022-10-13T00:51:17.305Z,10.64
2022-10-13T00:53:44.909Z,10.79
2022-10-13T00:56:15.149Z,10.92
2022-10-13T00:58:43.927Z,10.73
2022-10-13T01:01:11.817Z,10.76
2022-10-13T01:03:39.614Z,10.99
2022-10-13T01:06:08.066Z,11.07
2022-10-13T01:08:35.760Z,11.06
2022-10-13T01:11:18.197Z,11.06
2022-10-13T01:13:51.733Z,11.14
2022-10-13T01:16:23.426Z,11.15
2022-10-13T01:18:56.646Z,11.21
2022-10-13T01:21:29.180Z,11.32
2022-10-13T01:24:22.640Z,11.21
2022-10-13T01:27:08.997Z,11.13
2022-10-13T01:30:10.409Z,11.27
2022-10-13T01:32:52.304Z,11.26
2022-10-13T01:35:22.879Z,11.13
2022-10-13T01:37:56.690Z,11.32
2022-10-13T01:40:27.193Z,11.05
2022-10-13T01:42:58.829Z,11.09
2022-10-13T01:45:32.314Z,10.80
2022-10-13T01:48:00.635Z,10.64
2022-10-13T01:50:29.085Z,10.80
2022-10-13T01:52:56.846Z,10.74
2022-10-13T01:55:24.348Z,10.66
2022-10-13T01:57:51.726Z,10.76
2022-10-13T02:00:22.366Z,10.58
2022-10-13T02:03:00.613Z,10.45
2022-10-13T02:05:37.190Z,10.48
2022-10-13T02:08:09.718Z,10.51
2022-10-13T02:10:43.078Z,10.62
2022-10-13T02:13:14.009Z,10.58
2022-10-13T02:15:44.374Z,10.71
2022-10-13T02:18:14.987Z,10.73
2022-10-13T02:20:44.307Z,10.65
2022-10-13T02:23:14.347Z,10.86
2022-10-13T02:25:42.426Z,10.86
2022-10-13T02:28:11.079Z,10.77
2022-10-13T02:30:43.792Z,10.71
2022-10-13T02:33:14.195Z,10.80
2022-10-13T02:35:41.917Z,10.87
2022-10-13T02:38:09.450Z,10.83
2022-10-13T02:40:36.953Z,10.89
2022-10-13T02:43:04.440Z,10.81
2022-10-13T02:45:31.806Z,10.77
2022-10-13T02:47:59.232Z,10.70
2022-10-13T02:50:28.145Z,10.86
2022-10-13T02:52:57.335Z,10.92
2022-10-13T02:55:24.791Z,10.89
2022-10-13T02:57:56.829Z,10.85
2022-10-13T03:00:24.355Z,11.07
2022-10-13T03:02:51.726Z,10.94
2022-10-13T03:05:19.105Z,10.81
2022-10-13T03:07:47.858Z,10.88
2022-10-13T03:10:15.238Z,10.95
2022-10-13T03:12:42.651Z,10.90
2022-10-13T03:15:10.554Z,10.99
2022-10-13T03:17:37.961Z,11.00
2022-10-13T03:20:06.741Z,10.97
2022-10-13T03:22:34.327Z,11.03
2022-10-13T03:25:03.570Z,10.93
2022-10-13T03:27:31.002Z,11.07
2022-10-13T03:29:58.502Z,11.13
2022-10-13T03:32:26.026Z,11.15
2022-10-13T03:34:53.374Z,11.21
2022-10-13T03:37:20.897Z,11.13
2022-10-13T03:39:48.276Z,11.15
2022-10-13T03:42:18.013Z,11.01
2022-10-13T03:44:52.355Z,11.17
2022-10-13T03:47:22.695Z,11.15
2022-10-13T03:49:50.102Z,11.06
2022-10-13T03:52:17.871Z,11.11
2022-10-13T03:54:45.469Z,11.28
2022-10-13T03:57:12.908Z,11.15
2022-10-13T03:59:41.993Z,11.06
2022-10-13T04:02:09.649Z,11.03
2022-10-13T04:04:38.295Z,11.30
2022-10-13T04:07:08.578Z,11.28
2022-10-13T04:09:36.010Z,11.13
2022-10-13T04:12:03.443Z,11.15
2022-10-13T04:14:30.894Z,11.17
2022-10-13T04:17:05.746Z,11.02
2022-10-13T04:19:33.218Z,11.05
2022-10-13T04:22:05.997Z,10.99
2022-10-13T04:24:34.024Z,11.03
2022-10-13T04:27:01.398Z,11.11
2022-10-13T04:29:28.896Z,11.08
2022-10-13T04:31:56.287Z,11.18
2022-10-13T04:34:24.974Z,11.21
2022-10-13T04:36:52.631Z,11.34
2022-10-13T04:39:20.149Z,11.31
2022-10-13T04:41:50.614Z,11.44
2022-10-13T04:44:17.981Z,11.28
2022-10-13T04:46:45.340Z,11.28
2022-10-13T04:49:12.848Z,11.36
2022-10-13T04:51:42.963Z,11.45
2022-10-13T04:54:10.446Z,11.51
2022-10-13T04:56:37.996Z,11.46
2022-10-13T04:59:06.197Z,11.49
2022-10-13T05:01:34.099Z,11.49
2022-10-13T05:04:03.090Z,11.37
2022-10-13T05:06:53.279Z,11.55
2022-10-13T05:09:26.551Z,11.21
2022-10-13T05:11:55.027Z,11.28
2022-10-13T05:14:22.426Z,11.43
2022-10-13T05:16:49.953Z,11.21
2022-10-13T05:19:17.329Z,11.34
2022-10-13T05:21:44.715Z,11.34
2022-10-13T05:24:13.586Z,11.43
2022-10-13T05:26:42.834Z,11.35
2022-10-13T05:29:10.231Z,11.32
2022-10-13T05:31:38.088Z,11.51
2022-10-13T05:34:05.538Z,11.53
2022-10-13T05:36:34.449Z,11.38
2022-10-13T05:39:05.001Z,11.51
2022-10-13T05:41:32.853Z,11.58
2022-10-13T05:44:03.376Z,11.63
2022-10-13T05:46:31.017Z,11.68
2022-10-13T05:48:58.406Z,11.61
2022-10-13T05:51:28.261Z,11.77
2022-10-13T05:54:00.657Z,11.88
2022-10-13T05:56:31.641Z,11.77
2022-10-13T05:59:03.852Z,11.82
2022-10-13T06:01:32.856Z,11.73
2022-10-13T06:04:04.155Z,11.79
2022-10-13T06:06:31.898Z,11.83
2022-10-13T06:08:59.573Z,11.97
2022-10-13T06:11:27.004Z,12.12
2022-10-13T06:13:54.396Z,12.10
2022-10-13T06:16:23.069Z,12.13
2022-10-13T06:18:50.541Z,12.10
2022-10-13T06:21:18.204Z,12.28
2022-10-13T06:23:45.543Z,12.12
2022-10-13T06:26:12.988Z,12.25
2022-10-13T06:28:40.402Z,12.18
2022-10-13T06:31:07.989Z,12.09
2022-10-13T06:33:36.733Z,12.24
2022-10-13T06:36:04.912Z,12.28
2022-10-13T06:38:32.815Z,12.35
2022-10-13T06:41:01.161Z,12.41
2022-10-13T06:43:35.741Z,12.41
2022-10-13T06:46:10.390Z,12.38
2022-10-13T06:48:39.143Z,12.38
2022-10-13T06:51:08.443Z,12.33
2022-10-13T06:53:36.315Z,12.55
2022-10-13T06:56:05.496Z,12.47
2022-10-13T06:58:33.205Z,12.53
2022-10-13T07:01:00.703Z,12.46
2022-10-13T07:03:28.121Z,12.52
2022-10-13T07:06:01.294Z,12.48
2022-10-13T07:08:28.760Z,12.54
2022-10-13T07:10:56.189Z,12.51
2022-10-13T07:13:23.522Z,12.30
2022-10-13T07:15:51.071Z,12.51
2022-10-13T07:18:18.429Z,12.49
2022-10-13T07:20:45.997Z,12.72
2022-10-13T07:23:14.977Z,12.74
2022-10-13T07:25:42.396Z,12.74
2022-10-13T07:28:09.756Z,12.84
2022-10-13T07:30:39.570Z,13.01
2022-10-13T07:33:07.216Z,13.13
2022-10-13T07:35:34.718Z,13.03
2022-10-13T07:38:02.049Z,13.11
2022-10-13T07:40:30.761Z,13.11
2022-10-13T07:42:58.506Z,13.14
2022-10-13T07:45:26.431Z,13.18
2022-10-13T07:47:53.906Z,13.25
2022-10-13T07:50:21.368Z,13.41
2022-10-13T07:52:48.744Z,13.59
2022-10-13T07:55:16.266Z,13.72
2022-10-13T07:57:45.713Z,13.80
2022-10-13T08:00:14.081Z,13.93
2022-10-13T08:02:42.265Z,14.01
2022-10-13T08:05:10.017Z,14.29
2022-10-13T08:07:37.988Z,14.54
2022-10-13T08:10:06.108Z,14.74
2022-10-13T08:12:33.514Z,14.98
2022-10-13T08:15:05.988Z,14.94
2022-10-13T08:17:34.170Z,15.18
2022-10-13T08:20:01.568Z,15.31
2022-10-13T08:22:28.958Z,15.46
2022-10-13T08:24:56.734Z,15.75
2022-10-13T08:27:37.038Z,15.97
2022-10-13T08:30:15.232Z,15.84
2022-10-13T08:32:42.643Z,15.98
2022-10-13T08:35:10.203Z,15.64
2022-10-13T08:37:37.679Z,15.64
2022-10-13T08:40:05.729Z,15.62
2022-10-13T08:42:33.125Z,15.58
2022-10-13T08:47:54.134Z,15.80
2022-10-13T08:50:24.800Z,16.14
2022-10-13T08:52:55.079Z,16.48
2022-10-13T08:55:26.257Z,16.47
2022-10-13T08:57:53.774Z,16.53
2022-10-13T09:00:26.700Z,16.62
2022-10-13T09:02:59.013Z,16.38
2022-10-13T09:05:33.781Z,16.57
2022-10-13T09:08:05.986Z,16.93
2022-10-13T09:10:33.422Z,17.24
2022-10-13T09:13:01.184Z,17.29
2022-10-13T09:15:28.592Z,17.59
2022-10-13T09:18:11.777Z,17.57
2022-10-13T09:20:39.330Z,17.29
2022-10-13T09:23:19.951Z,17.50
2022-10-13T09:25:49.393Z,17.52
2022-10-13T09:28:20.963Z,17.03
2022-10-13T09:30:49.137Z,16.72
2022-10-13T09:33:22.162Z,16.45
2022-10-13T09:35:51.180Z,16.68
2022-10-13T09:38:20.766Z,16.14
2022-10-13T09:40:58.484Z,16.53
2022-10-13T09:43:31.062Z,16.64
2022-10-13T09:45:59.092Z,16.87
2022-10-13T09:48:29.122Z,17.37
2022-10-13T09:50:58.040Z,17.02
2022-10-13T09:53:30.985Z,16.71
2022-10-13T09:56:19.383Z,17.26
2022-10-13T09:58:50.623Z,17.45
2022-10-13T10:01:23.703Z,17.23
2022-10-13T10:03:52.987Z,16.95
2022-10-13T10:06:21.751Z,16.89
2022-10-13T10:09:03.333Z,16.94
2022-10-13T10:11:34.847Z,16.79
2022-10-13T10:14:06.202Z,16.49
2022-10-13T10:16:37.052Z,16.85
2022-10-13T10:19:11.250Z,16.55
2022-10-13T10:21:43.233Z,16.86
2022-10-13T10:24:18.618Z,16.58
2022-10-13T10:26:52.268Z,16.66
2022-10-13T10:29:33.467Z,16.71
2022-10-13T10:32:10.776Z,16.92
2022-10-13T10:34:43.962Z,16.86
2022-10-13T10:37:29.630Z,17.38
2022-10-13T10:40:05.125Z,17.48
2022-10-13T10:42:49.733Z,17.67
2022-10-13T10:45:21.545Z,17.90
2022-10-13T10:47:52.078Z,17.98
2022-10-13T10:50:22.309Z,17.61
2022-10-13T10:52:55.923Z,17.70
2022-10-13T10:55:29.838Z,17.81
2022-10-13T10:58:06.056Z,17.80
2022-10-13T11:00:39.367Z,17.66
2022-10-13T11:03:11.550Z,17.85
2022-10-13T11:06:05.015Z,18.12
2022-10-13T11:08:41.740Z,18.18
2022-10-13T11:11:38.196Z,18.73
2022-10-13T11:14:31.125Z,18.95
2022-10-13T11:17:17.577Z,19.18
2022-10-13T11:19:46.113Z,18.69
2022-10-13T11:22:17.935Z,19.00
2022-10-13T11:24:58.416Z,18.75
2022-10-13T11:27:43.273Z,18.69
2022-10-13T11:30:40.716Z,18.96
2022-10-13T11:33:48.016Z,19.59
2022-10-13T11:36:32.447Z,19.34
2022-10-13T11:39:07.946Z,19.44
2022-10-13T11:41:43.073Z,19.13
2022-10-13T11:44:18.174Z,19.72
2022-10-13T11:46:57.666Z,20.11
2022-10-13T11:49:43.132Z,19.67
2022-10-13T11:52:30.345Z,19.67
2022-10-13T11:55:04.804Z,19.80
2022-10-13T11:57:32.940Z,20.07
2022-10-13T12:00:02.957Z,20.02
2022-10-13T12:02:48.473Z,19.70
2022-10-13T12:05:24.147Z,19.24
2022-10-13T12:07:53.066Z,19.31
2022-10-13T12:10:24.742Z,19.21
2022-10-13T12:12:52.213Z,19.25
2022-10-13T12:15:30.477Z,19.10
2022-10-13T12:17:57.855Z,19.64
2022-10-13T12:20:27.028Z,18.90
2022-10-13T12:22:55.912Z,19.49
2022-10-13T12:25:26.673Z,19.36
2022-10-13T12:27:59.970Z,19.72
2022-10-13T12:30:29.438Z,19.90
2022-10-13T12:32:58.432Z,19.10
2022-10-13T12:35:29.081Z,18.90
2022-10-13T12:37:57.272Z,19.09
2022-10-13T12:40:26.224Z,19.21
2022-10-13T12:42:54.080Z,19.61
2022-10-13T12:45:22.725Z,20.26
2022-10-13T12:47:51.734Z,20.75
2022-10-13T12:50:37.814Z,20.88
2022-10-13T12:53:12.423Z,20.84
2022-10-13T12:55:49.680Z,21.00
2022-10-13T12:58:22.920Z,21.00
2022-10-13T13:00:59.558Z,20.85
2022-10-13T13:03:28.651Z,21.20
2022-10-13T13:06:23.748Z,21.27
2022-10-13T13:09:25.564Z,21.33
2022-10-13T13:12:21.303Z,21.29
2022-10-13T13:14:50.943Z,21.17
2022-10-13T13:17:57.944Z,21.17
2022-10-13T13:20:23.201Z,21.10
2022-10-13T13:22:51.590Z,20.91
2022-10-13T13:25:18.997Z,20.83
2022-10-13T13:27:47.927Z,20.64
2022-10-13T13:30:19.904Z,20.54
2022-10-13T13:32:48.235Z,20.47
2022-10-13T13:35:15.889Z,20.84
2022-10-13T13:37:45.676Z,20.88
2022-10-13T13:40:17.358Z,20.34
2022-10-13T13:42:45.102Z,19.71
2022-10-13T13:45:14.720Z,18.87
2022-10-13T13:47:42.186Z,19.66
2022-10-13T13:50:15.143Z,20.08
2022-10-13T13:52:45.564Z,20.19
2022-10-13T13:55:14.647Z,20.56
2022-10-13T13:57:42.812Z,19.92
2022-10-13T14:00:12.401Z,19.56
2022-10-13T14:02:42.708Z,18.96
2022-10-13T14:05:11.062Z,19.17
2022-10-13T14:07:38.569Z,18.82
2022-10-13T14:10:07.139Z,18.35
2022-10-13T14:12:35.367Z,18.34
2022-10-13T14:15:02.927Z,18.63
2022-10-13T14:17:30.362Z,18.61
2022-10-13T14:19:59.339Z,18.99
2022-10-13T14:22:27.013Z,18.49
2022-10-13T14:24:54.688Z,18.26
2022-10-13T14:27:22.790Z,18.07
2022-10-13T14:29:50.502Z,18.40
2022-10-13T14:32:18.820Z,18.43
2022-10-13T14:34:46.508Z,18.64
2022-10-13T14:37:15.277Z,18.20
2022-10-13T14:39:42.692Z,18.11
2022-10-13T14:42:10.161Z,18.44
2022-10-13T14:44:37.753Z,18.40
2022-10-13T14:47:05.259Z,18.48
2022-10-13T14:49:32.699Z,18.23
2022-10-13T14:52:00.156Z,17.77
2022-10-13T14:54:29.847Z,18.17
2022-10-13T14:56:59.551Z,17.58
2022-10-13T14:59:27.128Z,17.36
2022-10-13T15:02:01.457Z,17.61
2022-10-13T15:04:28.933Z,17.24
2022-10-13T15:06:56.702Z,17.31
2022-10-13T15:09:33.521Z,17.14
2022-10-13T15:12:15.342Z,17.03
2022-10-13T15:14:42.750Z,17.13
2022-10-13T15:17:10.204Z,16.98
2022-10-13T15:19:37.621Z,16.95
2022-10-13T15:22:06.861Z,16.68
2022-10-13T15:24:34.306Z,16.86
2022-10-13T15:27:02.589Z,16.99
2022-10-13T15:29:32.031Z,16.75
2022-10-13T15:32:09.265Z,16.92
2022-10-13T15:34:36.854Z,16.81
2022-10-13T15:37:04.630Z,16.94
2022-10-13T15:39:32.122Z,16.73
2022-10-13T15:41:59.737Z,16.81
2022-10-13T15:44:27.632Z,16.78
2022-10-13T15:47:08.000Z,16.90
2022-10-13T15:49:38.166Z,17.00
2022-10-13T15:52:05.820Z,16.85
2022-10-13T15:54:33.495Z,16.76
2022-10-13T15:57:00.969Z,16.41
2022-10-13T15:59:28.474Z,16.37
2022-10-13T16:01:57.245Z,16.12
2022-10-13T16:04:24.902Z,15.61
2022-10-13T16:06:52.278Z,14.85
2022-10-13T16:09:19.672Z,14.23
2022-10-13T16:11:47.041Z,14.00
2022-10-13T16:14:14.377Z,13.78
2022-10-13T16:16:41.749Z,13.49
2022-10-13T16:19:10.665Z,13.68
2022-10-13T16:21:37.993Z,13.73
2022-10-13T16:24:06.157Z,13.51
2022-10-13T16:26:33.536Z,13.32
2022-10-13T16:29:01.018Z,13.39
2022-10-13T16:31:28.469Z,13.25
2022-10-13T16:33:55.993Z,13.47
2022-10-13T16:36:25.260Z,13.57
2022-10-13T16:38:54.175Z,13.36
2022-10-13T16:41:21.817Z,13.30
2022-10-13T16:43:49.505Z,13.22
2022-10-13T16:46:18.304Z,13.57
2022-10-13T16:48:46.895Z,13.52
2022-10-13T16:51:54.866Z,13.24
2022-10-13T16:54:23.565Z,13.28
2022-10-13T16:56:51.559Z,13.52
2022-10-13T16:59:18.885Z,13.50
2022-10-13T17:01:47.126Z,13.59
2022-10-13T17:04:17.323Z,13.62
2022-10-13T17:06:48.551Z,13.71
2022-10-13T17:09:15.971Z,13.54
2022-10-13T17:11:47.172Z,13.59
2022-10-13T17:14:14.530Z,13.43
2022-10-13T17:16:41.998Z,13.48
2022-10-13T17:19:10.094Z,13.40
2022-10-13T17:21:37.915Z,13.34
2022-10-13T17:24:08.281Z,13.41
2022-10-13T17:26:35.733Z,13.47
2022-10-13T17:29:04.691Z,13.47
2022-10-13T17:31:32.120Z,13.39
2022-10-13T17:34:00.291Z,13.47
2022-10-13T17:36:29.696Z,13.55
2022-10-13T17:39:02.894Z,13.58
2022-10-13T17:41:30.245Z,13.34
2022-10-13T17:43:57.673Z,13.53
2022-10-13T17:46:36.890Z,13.56
2022-10-13T17:49:06.129Z,13.60
2022-10-13T17:51:33.521Z,13.40
2022-10-13T17:54:04.683Z,13.38
2022-10-13T17:56:32.194Z,13.47
2022-10-13T17:59:00.257Z,13.27
2022-10-13T18:01:31.465Z,13.36
2022-10-13T18:04:00.962Z,13.34
2022-10-13T18:06:30.584Z,13.32
2022-10-13T18:09:01.270Z,13.43
2022-10-13T18:11:28.985Z,13.36
2022-10-13T18:13:56.365Z,13.26
2022-10-13T18:16:24.605Z,13.34
2022-10-13T18:18:54.757Z,13.35
2022-10-13T18:21:23.956Z,13.35
2022-10-13T18:23:52.933Z,13.34
2022-10-13T18:26:20.973Z,13.33
2022-10-13T18:28:49.831Z,13.44
2022-10-13T18:31:21.718Z,13.38
2022-10-13T18:33:52.778Z,13.34
2022-10-13T18:36:23.406Z,13.42
2022-10-13T18:38:50.859Z,13.45
2022-10-13T18:41:19.379Z,13.34
2022-10-13T18:43:49.129Z,13.27
2022-10-13T18:46:18.810Z,13.17
2022-10-13T18:48:48.124Z,13.09
2022-10-13T18:51:18.210Z,13.23
2022-10-13T18:53:47.095Z,13.26
2022-10-13T18:56:19.072Z,13.34
2022-10-13T18:58:46.961Z,13.24
2022-10-13T19:01:17.440Z,13.28
2022-10-13T19:03:45.451Z,13.28
2022-10-13T19:06:15.125Z,13.40
2022-10-13T19:08:48.108Z,13.43
2022-10-13T19:11:16.874Z,13.30
2022-10-13T19:13:44.560Z,13.40
2022-10-13T19:16:13.052Z,13.45
2022-10-13T19:18:40.599Z,13.39
2022-10-13T19:21:08.169Z,13.35
2022-10-13T19:23:35.545Z,13.31
2022-10-13T19:26:12.468Z,13.18
2022-10-13T19:28:42.639Z,13.20
2022-10-13T19:31:10.564Z,13.28
2022-10-13T19:33:44.821Z,13.15
2022-10-13T19:36:21.551Z,13.29
2022-10-13T19:38:49.635Z,13.26
2022-10-13T19:41:18.957Z,13.39
2022-10-13T19:43:46.375Z,13.41
2022-10-13T19:46:13.865Z,13.31
2022-10-13T19:48:41.296Z,13.09
2022-10-13T19:51:10.012Z,13.23
2022-10-13T19:53:40.860Z,13.28
2022-10-13T19:56:09.265Z,13.12
2022-10-13T19:58:37.997Z,13.11
2022-10-13T20:01:08.163Z,13.06
2022-10-13T20:03:35.756Z,13.15
2022-10-13T20:06:06.872Z,13.09
2022-10-13T20:08:39.017Z,13.09
2022-10-13T20:11:07.397Z,13.24
2022-10-13T20:13:34.859Z,13.13
2022-10-13T20:16:07.290Z,13.22
2022-10-13T20:18:34.971Z,13.07
2022-10-13T20:21:04.215Z,13.15
2022-10-13T20:23:32.697Z,13.16
2022-10-13T20:26:02.921Z,13.28
2022-10-13T20:28:39.196Z,13.28
2022-10-13T20:31:11.382Z,13.40
2022-10-13T20:33:38.921Z,13.27
2022-10-13T20:36:08.660Z,13.42
2022-10-13T20:38:36.650Z,13.47
2022-10-13T20:41:04.962Z,13.37
2022-10-13T20:43:32.381Z,13.37
2022-10-13T20:46:00.994Z,13.40
2022-10-13T20:48:45.572Z,13.39
2022-10-13T20:51:20.605Z,13.42
2022-10-13T20:53:48.558Z,13.40
2022-10-13T20:56:18.201Z,13.33
2022-10-13T20:58:46.233Z,13.09
2022-10-13T21:01:13.888Z,13.22
2022-10-13T21:03:42.656Z,13.25
2022-10-13T21:06:11.914Z,13.23
2022-10-13T21:08:39.497Z,13.14
2022-10-13T21:11:12.651Z,13.08
2022-10-13T21:13:42.457Z,13.19
2022-10-13T21:16:12.126Z,13.21
2022-10-13T21:18:39.692Z,13.29
2022-10-13T21:21:09.704Z,13.22
2022-10-13T21:23:37.208Z,13.28
2022-10-13T21:26:05.788Z,13.46
2022-10-13T21:28:33.899Z,13.28
2022-10-13T21:31:05.706Z,13.25
2022-10-13T21:33:35.698Z,13.22
2022-10-13T21:36:08.711Z,13.10
2022-10-13T21:38:36.479Z,13.30
2022-10-13T21:41:05.109Z,13.47
2022-10-13T21:43:32.677Z,13.22
2022-10-13T21:46:08.968Z,13.26
2022-10-13T21:48:43.254Z,13.43
2022-10-13T21:51:13.449Z,13.40
2022-10-13T21:53:41.202Z,13.54
2022-10-13T21:56:11.279Z,13.62
2022-10-13T21:58:39.253Z,13.44
2022-10-13T22:01:07.080Z,13.42
2022-10-13T22:03:34.818Z,13.30
2022-10-13T22:06:06.508Z,13.02
2022-10-13T22:08:38.710Z,13.25
2022-10-13T22:11:14.023Z,13.38
2022-10-13T22:13:41.581Z,13.27
2022-10-13T22:16:11.714Z,13.36
2022-10-13T22:18:43.017Z,13.23
2022-10-13T22:21:13.265Z,13.33
2022-10-13T22:23:42.086Z,13.20
2022-10-13T22:26:10.157Z,13.03
2022-10-13T22:28:38.024Z,13.03
2022-10-13T22:31:05.820Z,13.07
2022-10-13T22:33:34.810Z,13.10
2022-10-13T22:36:03.617Z,13.25
2022-10-13T22:38:30.975Z,13.24
2022-10-13T22:41:03.712Z,13.19
2022-10-13T22:43:31.105Z,13.03
2022-10-13T22:46:01.824Z,13.16
2022-10-13T22:48:29.447Z,13.19
2022-10-13T22:50:58.779Z,13.20
2022-10-13T22:53:29.789Z,13.16
2022-10-13T22:55:57.149Z,13.05
2022-10-13T22:58:25.919Z,13.21
2022-10-13T23:00:56.078Z,13.14
2022-10-13T23:03:23.740Z,13.10
2022-10-13T23:05:54.474Z,13.17
2022-10-13T23:08:21.836Z,13.17
2022-10-13T23:10:49.197Z,13.42
2022-10-13T23:13:16.649Z,13.48
2022-10-13T23:15:47.875Z,13.35
2022-10-13T23:18:15.353Z,13.35
2022-10-13T23:20:43.204Z,13.27
2022-10-13T23:23:11.041Z,13.14
2022-10-13T23:25:38.630Z,13.14
2022-10-13T23:28:06.033Z,13.17
2022-10-13T23:30:33.506Z,13.06
2022-10-13T23:33:02.265Z,13.23
2022-10-13T23:35:29.617Z,13.37
2022-10-13T23:37:57.018Z,13.35
2022-10-13T23:40:24.402Z,13.34
2022-10-13T23:42:51.986Z,13.59
2022-10-13T23:45:19.320Z,13.47
2022-10-13T23:47:46.775Z,13.35
2022-10-13T23:50:15.726Z,13.45
2022-10-13T23:52:43.076Z,13.25
2022-10-13T23:55:10.464Z,13.25
2022-10-13T23:57:37.837Z,13.44
